ADDS METAR Data INFO
IDs: Format: Raw Decoded Include TAF

Data at: 2000 UTC 19 Oct 2017

KLVK 191953Z 26008KT 10SM BKN028 18/11 A2997 RMK AO2 SLP147 T01780111
KLVK 191853Z 30009KT 10SM FEW018 BKN034 17/11 A2999 RMK AO2 SLP153 T01670111
KLVK 191828Z 29008KT 10SM FU SCT015 BKN036 OVC060 16/11 A2999 RMK AO2 T01610111
KLVK 191753Z 27009KT 10SM FU OVC014 16/11 A2999 RMK AO2 SLP155 T01560111 10156 20117 51003
KLVK 191653Z 26008KT 10SM FU OVC011 14/11 A2999 RMK AO2 SLP154 T01390106
KLVK 191609Z 27005KT 10SM FU OVC009 13/11 A2999 RMK AO2 T01280106
KLVK 191602Z 28005KT 10SM FU OVC010 13/11 A2999 RMK AO2 T01280106
KLVK 191553Z 24005KT 10SM FU OVC009 13/11 A2999 RMK AO2 SLP153 T01280106
KLVK 191453Z 27010KT 10SM FU OVC009 12/11 A2998 RMK AO2 CIG 008V012 SLP151 T01220106 53001
KLVK 191443Z 27009KT 10SM FU OVC009 12/11 A2998 RMK AO2 CIG 008V012 T01220106
KLVK 191353Z COR 26006KT 10SM FU BKN011 12/11 A2997 RMK AO2 SLP149 T01220106
KLVK 191349Z AUTO 26004KT 10SM FU OVC011 12/11 A2998 RMK AO2
KLVK 191253Z AUTO 27006KT 10SM FU OVC008 12/11 A2998 RMK AO2 CIG 007V012 SLP149 T01220106
KLVK 191153Z AUTO 26006KT 10SM FU OVC007 12/11 A2999 RMK AO2 SLP152 T01220111 10122 20100 58004
KLVK 191053Z AUTO 22004KT 10SM FU OVC008 12/10 A2999 RMK AO2 SLP153 T01170100
KLVK 191007Z AUTO 25007KT 10SM FU OVC009 12/10 A3000 RMK AO2 CIG 007V012 T01170100
KLVK 190953Z AUTO 26004KT 10SM FU OVC011 11/09 A3000 RMK AO2 CIG 007V012 SLP155 T01110094
KLVK 190943Z AUTO 24003KT 10SM FU OVC011 11/09 A3000 RMK AO2 T01110094
KLVK 190853Z AUTO 00000KT 10SM FU BKN009 11/09 A3000 RMK AO2 SLP156 T01110094 58002
KLVK 190844Z AUTO 00000KT 10SM FU BKN009 11/09 A3000 RMK AO2 T01110094
KLVK 190753Z AUTO 26005KT 10SM FU CLR 10/08 A3000 RMK AO2 SLP155 T01000083 402780067
KLVK 190653Z AUTO 30004KT 10SM FU CLR 11/09 A3001 RMK AO2 SLP161 T01110094
KLVK 190553Z AUTO 30010KT 10SM FU CLR 12/09 A3000 RMK AO2 SLP159 T01170089 10239 20117 53007
KLVK 190453Z 31008KT 10SM FU CLR 12/08 A2999 RMK AO2 SLP153 T01220078
KLVK 190353Z 31005KT 10SM FU CLR 13/07 A2998 RMK AO2 SLP150 T01330072
KLVK 190253Z 30006KT 10SM FU CLR 15/06 A2998 RMK AO2 SLP152 T01500056 53009
KLVK 190153Z 27005KT 10SM FU CLR 16/06 A2997 RMK AO2 SLP148 T01560056
KLVK 190053Z 30015KT 10SM FU CLR 20/05 A2996 RMK AO2 SLP143 T02000050
KLVK 182353Z 29011KT 10SM FU CLR 24/06 A2995 RMK AO2 SLP141 T02390061 10278 20183 56011
KLVK 182253Z 29010KT 10SM FU CLR 27/04 A2995 RMK AO2 SLP141 T02670044
KLVK 182153Z 28008KT 10SM FU CLR 27/03 A2997 RMK AO2 SLP145 T02720028
KLVK 182053Z VRB04KT 10SM FU CLR 26/01 A2999 RMK AO2 SLP152 T02610006 58024
KLVK 181953Z VRB03KT 9SM FU CLR 24/01 A3002 RMK AO2 SLP163 T02440006
KLVK 181853Z 25003KT 9SM FU CLR 22/02 A3005 RMK AO2 SLP172 T02170017
KLVK 181753Z 31003KT 7SM FU CLR 18/01 A3006 RMK AO2 SLP176 T01830011 10183 20067 50006
KLVK 181653Z 00000KT 8SM FU CLR 14/01 A3006 RMK AO2 SLP179 T01390011
KLVK 181553Z 00000KT 8SM FU CLR 11/01 A3006 RMK AO2 SLP177 T01110006
KLVK 181453Z COR 00000KT 8SM FU CLR 07/01 A3004 RMK AO2 SLP171 T00670011 51007
KLVK 181353Z 00000KT 9SM FU CLR 08/01 A3004 RMK AO2 SLP171 T00830006
KLVK 181253Z AUTO 00000KT 9SM FU CLR 07/01 A3003 RMK AO2 SLP168 T00720006
KLVK 181153Z AUTO 00000KT 10SM FU CLR 09/01 A3002 RMK AO2 SLP163 T00890006 10139 20078 58009
KLVK 181053Z AUTO 05003KT 9SM FU CLR 09/00 A3002 RMK AO2 SLP165 T00890000
KLVK 180953Z AUTO 00000KT 10SM FU CLR 09/00 A3005 RMK AO2 SLP172 T00890000
KLVK 180853Z AUTO 05003KT 8SM FU CLR 10/01 A3005 RMK AO2 SLP172 T01000011 57002